createdAt,value
2019-05-16T00:02:28.533Z,8.40
2019-05-16T00:05:03.654Z,8.40
2019-05-16T00:07:35.697Z,8.30
2019-05-16T00:10:08.550Z,8.30
2019-05-16T00:12:41.518Z,8.30
2019-05-16T00:15:14.925Z,8.20
2019-05-16T00:17:48.775Z,8.30
2019-05-16T00:20:20.858Z,8.30
2019-05-16T00:22:53.737Z,8.30
2019-05-16T00:25:28.711Z,8.40
2019-05-16T00:28:03.674Z,8.30
2019-05-16T00:30:35.714Z,8.40
2019-05-16T00:33:10.407Z,8.30
2019-05-16T00:35:43.706Z,8.40
2019-05-16T00:38:18.345Z,8.40
2019-05-16T00:40:51.039Z,8.40
2019-05-16T00:43:25.344Z,8.40
2019-05-16T00:46:00.659Z,8.40
2019-05-16T00:48:32.542Z,8.40
2019-05-16T00:51:07.844Z,8.40
2019-05-16T00:53:41.566Z,8.40
2019-05-16T00:56:14.061Z,8.40
2019-05-16T00:58:48.386Z,8.40
2019-05-16T01:01:21.511Z,8.40
2019-05-16T01:03:55.102Z,8.40
2019-05-16T01:06:28.763Z,8.30
2019-05-16T01:09:02.057Z,8.30
2019-05-16T01:11:38.031Z,8.30
2019-05-16T01:14:09.678Z,8.30
2019-05-16T01:16:42.774Z,8.30
2019-05-16T01:19:16.097Z,8.30
2019-05-16T01:21:50.268Z,8.40
2019-05-16T01:24:24.604Z,8.40
2019-05-16T01:26:58.066Z,8.40
2019-05-16T01:29:32.411Z,8.40
2019-05-16T01:32:08.246Z,8.50
2019-05-16T01:34:39.761Z,8.40
2019-05-16T01:37:11.532Z,8.40
2019-05-16T01:39:44.586Z,8.40
2019-05-16T01:42:18.460Z,8.40
2019-05-16T01:44:50.773Z,8.40
2019-05-16T01:47:24.045Z,8.40
2019-05-16T01:49:57.877Z,8.40
2019-05-16T01:52:32.351Z,8.40
2019-05-16T01:55:05.528Z,8.40
2019-05-16T01:57:39.090Z,8.40
2019-05-16T02:00:14.065Z,8.40
2019-05-16T02:02:46.054Z,8.40
2019-05-16T02:05:19.462Z,8.40
2019-05-16T02:07:52.865Z,8.40
2019-05-16T02:10:28.448Z,8.40
2019-05-16T02:13:00.513Z,8.40
2019-05-16T02:15:32.359Z,8.40
2019-05-16T02:18:04.835Z,8.30
2019-05-16T02:20:39.269Z,8.30
2019-05-16T02:23:11.292Z,8.30
2019-05-16T02:25:48.646Z,8.20
2019-05-16T02:28:23.827Z,8.20
2019-05-16T02:30:55.283Z,8.20
2019-05-16T02:33:31.852Z,8.20
2019-05-16T02:36:05.354Z,8.20
2019-05-16T02:38:37.149Z,8.20
2019-05-16T02:41:12.771Z,8.20
2019-05-16T02:43:45.990Z,8.20
2019-05-16T02:46:21.815Z,8.20
2019-05-16T02:48:53.563Z,8.20
2019-05-16T02:51:25.998Z,8.20
2019-05-16T02:54:01.393Z,8.20
2019-05-16T02:56:32.986Z,8.20
2019-05-16T02:59:16.181Z,8.20
2019-05-16T03:01:52.109Z,8.10
2019-05-16T03:04:23.715Z,8.20
2019-05-16T03:07:00.377Z,8.20
2019-05-16T03:09:35.038Z,8.20
2019-05-16T03:12:10.569Z,8.20
2019-05-16T03:14:43.770Z,8.20
2019-05-16T03:17:21.450Z,8.20
2019-05-16T03:19:56.785Z,8.20
2019-05-16T03:22:31.507Z,8.20
2019-05-16T03:25:05.307Z,8.20
2019-05-16T03:27:41.362Z,8.20
2019-05-16T03:30:16.541Z,8.20
2019-05-16T03:32:54.129Z,8.20
2019-05-16T03:35:24.762Z,8.20
2019-05-16T03:38:01.431Z,8.20
2019-05-16T03:40:34.958Z,8.30
2019-05-16T03:43:11.350Z,8.30
2019-05-16T03:45:44.051Z,8.30
2019-05-16T03:48:16.562Z,8.30
2019-05-16T03:50:50.707Z,8.30
2019-05-16T03:53:24.407Z,8.30
2019-05-16T03:55:57.976Z,8.30
2019-05-16T03:58:31.030Z,8.30
2019-05-16T04:01:03.780Z,8.30
2019-05-16T04:03:36.483Z,8.30
2019-05-16T04:06:12.610Z,8.30
2019-05-16T04:08:50.428Z,8.40
2019-05-16T04:11:23.490Z,8.40
2019-05-16T04:14:01.430Z,8.40
2019-05-16T04:16:41.382Z,8.30
2019-05-16T04:19:14.845Z,8.30
2019-05-16T04:21:51.116Z,8.30
2019-05-16T04:24:23.802Z,8.30
2019-05-16T04:27:00.877Z,8.30
2019-05-16T04:29:32.309Z,8.30
2019-05-16T04:32:06.519Z,8.30
2019-05-16T04:34:41.713Z,8.40
2019-05-16T04:37:13.609Z,8.40
2019-05-16T04:39:46.400Z,8.30
2019-05-16T04:42:21.372Z,8.40
2019-05-16T04:44:53.208Z,8.40
2019-05-16T04:47:26.267Z,8.40
2019-05-16T04:50:01.529Z,8.40
2019-05-16T04:52:34.796Z,8.30
2019-05-16T04:55:11.341Z,8.40
2019-05-16T04:57:42.666Z,8.40
2019-05-16T05:00:16.054Z,8.40
2019-05-16T05:02:51.583Z,8.40
2019-05-16T05:05:23.831Z,8.50
2019-05-16T05:07:56.649Z,8.50
2019-05-16T05:10:31.208Z,8.60
2019-05-16T05:13:03.269Z,8.60
2019-05-16T05:15:35.784Z,8.70
2019-05-16T05:18:10.124Z,8.70
2019-05-16T05:20:43.527Z,8.90
2019-05-16T05:23:16.148Z,9.00
2019-05-16T05:25:50.959Z,9.10
2019-05-16T05:28:23.450Z,9.30
2019-05-16T05:31:01.054Z,9.50
2019-05-16T05:33:34.143Z,9.70
2019-05-16T05:36:06.710Z,10.00
2019-05-16T05:38:41.035Z,10.20
2019-05-16T05:41:14.157Z,10.40
2019-05-16T05:43:46.947Z,10.60
2019-05-16T05:46:20.470Z,10.80
2019-05-16T05:48:53.181Z,10.90
2019-05-16T05:51:26.352Z,11.00
2019-05-16T05:54:00.187Z,11.00
2019-05-16T05:56:33.146Z,11.10
2019-05-16T05:59:06.148Z,11.00
2019-05-16T06:01:40.741Z,11.00
2019-05-16T06:04:13.110Z,11.00
2019-05-16T06:06:46.556Z,11.10
2019-05-16T06:09:28.317Z,10.90
2019-05-16T06:11:54.776Z,10.90
2019-05-16T06:14:30.441Z,11.00
2019-05-16T06:17:03.184Z,11.10
2019-05-16T06:19:36.134Z,11.20
2019-05-16T06:22:10.209Z,11.20
2019-05-16T06:24:43.356Z,11.10
2019-05-16T06:27:17.340Z,11.20
2019-05-16T06:29:50.010Z,11.20
2019-05-16T06:32:22.737Z,11.30
2019-05-16T06:34:56.018Z,11.30
2019-05-16T06:37:30.737Z,11.50
2019-05-16T06:40:03.722Z,11.60
2019-05-16T06:42:37.009Z,12.00
2019-05-16T06:45:10.739Z,12.10
2019-05-16T06:47:50.207Z,12.10
2019-05-16T06:50:23.329Z,12.00
2019-05-16T06:52:56.067Z,12.00
2019-05-16T06:55:29.626Z,11.70
2019-05-16T06:58:03.312Z,11.30
2019-05-16T07:00:35.942Z,10.80
2019-05-16T07:03:10.236Z,10.70
2019-05-16T07:05:43.938Z,10.60
2019-05-16T07:08:16.863Z,10.60
2019-05-16T07:10:50.770Z,10.50
2019-05-16T07:13:23.797Z,10.50
2019-05-16T07:15:56.506Z,10.50
2019-05-16T07:18:31.152Z,10.60
2019-05-16T07:21:04.211Z,10.70
2019-05-16T07:23:37.526Z,10.70
2019-05-16T07:26:10.137Z,10.90
2019-05-16T07:28:43.814Z,11.30
2019-05-16T07:31:18.823Z,11.60
2019-05-16T07:33:52.240Z,11.80
2019-05-16T07:36:26.048Z,11.70
2019-05-16T07:38:59.809Z,11.80
2019-05-16T07:41:32.227Z,12.00
2019-05-16T07:44:04.955Z,12.30
2019-05-16T07:46:40.799Z,12.70
2019-05-16T07:49:11.984Z,13.00
2019-05-16T07:51:44.929Z,13.30
2019-05-16T07:54:17.846Z,13.20
2019-05-16T07:56:59.295Z,12.90
2019-05-16T07:59:25.588Z,12.60
2019-05-16T08:02:00.376Z,12.50
2019-05-16T08:04:33.045Z,12.40
2019-05-16T08:07:06.178Z,12.50
2019-05-16T08:09:39.789Z,12.90
2019-05-16T08:12:12.500Z,13.10
2019-05-16T08:14:45.203Z,13.20
2019-05-16T08:17:21.421Z,13.20
2019-05-16T08:19:52.663Z,12.90
2019-05-16T08:22:25.254Z,12.50
2019-05-16T08:25:00.233Z,12.40
2019-05-16T08:27:32.824Z,12.40
2019-05-16T08:30:06.290Z,12.30
2019-05-16T08:32:42.121Z,12.30
2019-05-16T08:35:15.536Z,12.60
2019-05-16T08:37:51.068Z,12.60
2019-05-16T08:40:22.897Z,12.50
2019-05-16T08:42:55.703Z,12.30
2019-05-16T08:45:31.371Z,12.30
2019-05-16T08:48:03.099Z,12.40
2019-05-16T08:50:36.575Z,12.60
2019-05-16T08:53:12.939Z,12.90
2019-05-16T08:55:44.070Z,12.70
2019-05-16T08:58:17.125Z,12.60
2019-05-16T09:00:55.307Z,12.70
2019-05-16T09:03:24.627Z,12.90
2019-05-16T09:06:02.502Z,12.80
2019-05-16T09:08:33.219Z,12.20
2019-05-16T09:11:26.995Z,11.90
2019-05-16T09:13:40.461Z,11.90
2019-05-16T09:16:13.021Z,12.00
2019-05-16T09:18:46.230Z,12.00
2019-05-16T09:21:19.269Z,12.10
2019-05-16T09:23:51.938Z,11.90
2019-05-16T09:26:27.661Z,11.80
2019-05-16T09:29:00.296Z,11.70
2019-05-16T09:31:32.974Z,11.70
2019-05-16T09:34:07.468Z,11.80
2019-05-16T09:36:40.250Z,12.00
2019-05-16T09:39:13.429Z,12.00
2019-05-16T09:41:58.299Z,12.00
2019-05-16T09:44:21.403Z,12.30
2019-05-16T09:46:56.706Z,12.70
2019-05-16T09:49:29.302Z,13.10
2019-05-16T09:52:03.083Z,13.40
2019-05-16T09:54:37.918Z,13.70
2019-05-16T09:57:10.476Z,13.90
2019-05-16T09:59:43.311Z,13.80
2019-05-16T10:02:17.581Z,13.30
2019-05-16T10:04:50.939Z,13.10
2019-05-16T10:07:23.592Z,13.00
2019-05-16T10:09:57.194Z,13.30
2019-05-16T10:12:31.922Z,13.30
2019-05-16T10:15:07.284Z,13.20
2019-05-16T10:17:41.356Z,12.90
2019-05-16T10:20:16.767Z,12.90
2019-05-16T10:22:50.601Z,13.20
2019-05-16T10:25:27.439Z,13.70
2019-05-16T10:27:58.979Z,13.80
2019-05-16T10:30:31.901Z,13.50
2019-05-16T10:33:08.196Z,13.60
2019-05-16T10:35:43.033Z,13.40
2019-05-16T10:38:17.914Z,13.10
2019-05-16T10:40:50.755Z,13.00
2019-05-16T10:43:26.304Z,13.00
2019-05-16T10:45:58.019Z,12.90
2019-05-16T10:48:32.603Z,12.60
2019-05-16T10:51:07.567Z,12.50
2019-05-16T10:54:02.592Z,12.40
2019-05-16T10:56:14.738Z,12.30
2019-05-16T10:59:14.157Z,12.50
2019-05-16T11:01:27.780Z,12.70
2019-05-16T11:03:57.015Z,12.80
2019-05-16T11:06:31.112Z,12.90
2019-05-16T11:09:06.579Z,12.50
2019-05-16T11:11:41.168Z,12.30
2019-05-16T11:14:14.087Z,12.30
2019-05-16T11:16:48.299Z,12.20
2019-05-16T11:19:24.489Z,12.10
2019-05-16T11:21:57.317Z,12.20
2019-05-16T11:24:30.740Z,12.10
2019-05-16T11:27:07.325Z,12.00
2019-05-16T11:29:39.328Z,12.10
2019-05-16T11:32:12.026Z,12.20
2019-05-16T11:34:47.923Z,12.40
2019-05-16T11:37:20.356Z,12.50
2019-05-16T11:39:52.813Z,12.60
2019-05-16T11:42:27.855Z,12.90
2019-05-16T11:45:01.187Z,13.10
2019-05-16T11:47:33.950Z,13.20
2019-05-16T11:50:07.458Z,13.10
2019-05-16T11:52:41.076Z,13.10
2019-05-16T11:55:15.350Z,13.10
2019-05-16T11:57:48.119Z,13.00
2019-05-16T12:00:21.523Z,12.90
2019-05-16T12:02:54.216Z,12.70
2019-05-16T12:05:27.305Z,12.60
2019-05-16T12:08:00.184Z,12.50
2019-05-16T12:10:33.448Z,12.30
2019-05-16T12:13:09.056Z,12.10
2019-05-16T12:15:40.473Z,12.00
2019-05-16T12:18:13.075Z,11.80
2019-05-16T12:20:45.935Z,11.70
2019-05-16T12:23:22.768Z,11.70
2019-05-16T12:25:56.589Z,11.60
2019-05-16T12:28:29.084Z,11.60
2019-05-16T12:31:03.532Z,11.70
2019-05-16T12:33:37.610Z,11.80
2019-05-16T12:36:10.713Z,11.90
2019-05-16T12:38:43.234Z,11.90
2019-05-16T12:41:16.423Z,11.90
2019-05-16T12:43:53.442Z,11.90
2019-05-16T12:46:24.099Z,11.70
2019-05-16T12:48:57.587Z,11.70
2019-05-16T12:51:30.507Z,11.50
2019-05-16T12:54:03.522Z,11.50
2019-05-16T12:56:37.726Z,11.60
2019-05-16T12:59:10.941Z,11.50
2019-05-16T13:01:44.118Z,11.40
2019-05-16T13:04:19.043Z,11.40
2019-05-16T13:06:51.875Z,11.50
2019-05-16T13:09:26.514Z,11.60
2019-05-16T13:12:00.076Z,11.60
2019-05-16T13:14:32.453Z,11.50
2019-05-16T13:17:07.304Z,11.50
2019-05-16T13:19:44.229Z,11.80
2019-05-16T13:22:16.680Z,11.90
2019-05-16T13:24:49.798Z,11.90
2019-05-16T13:27:23.332Z,11.70
2019-05-16T13:29:58.105Z,11.60
2019-05-16T13:32:31.035Z,11.40
2019-05-16T13:35:03.658Z,11.30
2019-05-16T13:37:37.966Z,11.30
2019-05-16T13:40:12.221Z,11.30
2019-05-16T13:42:47.785Z,11.30
2019-05-16T13:45:22.097Z,11.40
2019-05-16T13:47:57.111Z,11.40
2019-05-16T13:50:29.246Z,11.50
2019-05-16T13:53:01.926Z,11.80
2019-05-16T13:55:37.581Z,12.10
2019-05-16T13:58:09.108Z,12.40
2019-05-16T14:00:42.419Z,12.70
2019-05-16T14:03:17.740Z,12.90
2019-05-16T14:05:49.950Z,13.00
2019-05-16T14:08:23.733Z,12.90
2019-05-16T14:11:01.658Z,12.70
2019-05-16T14:13:33.557Z,12.30
2019-05-16T14:16:07.418Z,12.30
2019-05-16T14:18:40.603Z,12.00
2019-05-16T14:21:13.509Z,11.60
2019-05-16T14:23:53.364Z,11.40
2019-05-16T14:26:21.692Z,11.00
2019-05-16T14:28:57.351Z,10.80
2019-05-16T14:31:29.647Z,10.70
2019-05-16T14:34:03.132Z,10.40
2019-05-16T14:36:37.760Z,10.30
2019-05-16T14:39:10.966Z,10.30
2019-05-16T14:41:44.188Z,10.20
2019-05-16T14:44:18.255Z,10.20
2019-05-16T14:46:52.273Z,10.20
2019-05-16T14:49:28.445Z,10.10
2019-05-16T14:51:59.357Z,10.00
2019-05-16T14:54:32.041Z,10.10
2019-05-16T14:57:04.722Z,10.10
2019-05-16T14:59:37.716Z,10.10
2019-05-16T15:02:10.493Z,10.10
2019-05-16T15:04:49.235Z,10.10
2019-05-16T15:07:19.709Z,10.00
2019-05-16T15:10:03.454Z,10.00
2019-05-16T15:12:42.964Z,9.90
2019-05-16T15:15:24.139Z,9.80
2019-05-16T15:17:58.900Z,9.90
2019-05-16T15:20:33.265Z,9.90
2019-05-16T15:23:07.756Z,9.80
2019-05-16T15:25:48.490Z,9.80
2019-05-16T15:28:21.151Z,9.90
2019-05-16T15:31:07.129Z,9.90
2019-05-16T15:33:39.782Z,9.90
2019-05-16T15:36:13.020Z,9.90
2019-05-16T15:38:52.015Z,10.00
2019-05-16T15:41:27.211Z,10.10
2019-05-16T15:44:12.486Z,10.10
2019-05-16T15:46:49.463Z,10.20
2019-05-16T15:49:23.282Z,10.10
2019-05-16T15:51:57.201Z,10.20
2019-05-16T15:54:32.665Z,10.20
2019-05-16T15:57:06.649Z,10.10
2019-05-16T15:59:39.823Z,10.10
2019-05-16T16:02:17.635Z,10.10
2019-05-16T16:04:52.720Z,10.10
2019-05-16T16:07:27.137Z,10.00
2019-05-16T16:09:59.648Z,10.00
2019-05-16T16:12:37.238Z,10.00
2019-05-16T16:15:09.284Z,9.90
2019-05-16T16:17:42.481Z,9.90
2019-05-16T16:20:17.014Z,9.70
2019-05-16T16:22:50.903Z,9.70
2019-05-16T16:25:26.703Z,9.70
2019-05-16T16:27:58.699Z,9.70
2019-05-16T16:30:31.447Z,9.60
2019-05-16T16:33:19.024Z,9.70
2019-05-16T16:35:40.879Z,9.70
2019-05-16T16:38:13.509Z,9.80
2019-05-16T16:40:48.057Z,9.90
2019-05-16T16:43:23.662Z,9.70
2019-05-16T16:46:06.046Z,9.80
2019-05-16T16:48:31.228Z,9.70
2019-05-16T16:51:06.376Z,9.70
2019-05-16T16:53:38.994Z,9.70
2019-05-16T16:56:13.141Z,9.70
2019-05-16T16:58:46.705Z,9.70
2019-05-16T17:01:19.840Z,9.70
2019-05-16T17:03:56.847Z,9.70
2019-05-16T17:06:27.885Z,9.70
2019-05-16T17:09:01.023Z,9.70
2019-05-16T17:11:37.069Z,9.70
2019-05-16T17:14:10.135Z,9.70
2019-05-16T17:16:47.605Z,9.80
2019-05-16T17:19:21.870Z,9.80
2019-05-16T17:22:13.086Z,9.70
2019-05-16T17:24:32.787Z,9.70
2019-05-16T17:27:07.863Z,9.70
2019-05-16T17:29:41.329Z,9.70
2019-05-16T17:32:16.541Z,9.70
2019-05-16T17:34:51.325Z,9.70
2019-05-16T17:37:26.687Z,9.50
2019-05-16T17:39:59.538Z,9.50
2019-05-16T17:42:37.363Z,9.50
2019-05-16T17:45:13.407Z,9.50
2019-05-16T17:47:46.718Z,9.50
2019-05-16T17:50:20.907Z,9.50
2019-05-16T17:52:54.837Z,9.40
2019-05-16T17:55:29.843Z,9.40
2019-05-16T17:58:08.957Z,9.40
2019-05-16T18:00:42.275Z,9.30
2019-05-16T18:03:17.442Z,9.30
2019-05-16T18:05:51.395Z,9.20
2019-05-16T18:08:29.529Z,9.30
2019-05-16T18:11:06.979Z,9.30
2019-05-16T18:13:39.067Z,9.20
2019-05-16T18:16:12.159Z,9.10
2019-05-16T18:18:46.859Z,9.10
2019-05-16T18:21:19.842Z,9.00
2019-05-16T18:23:52.670Z,9.00
2019-05-16T18:26:26.912Z,9.00
2019-05-16T18:29:01.179Z,9.00
2019-05-16T18:31:34.001Z,9.00
2019-05-16T18:34:07.527Z,9.00
2019-05-16T18:36:41.018Z,9.00
2019-05-16T18:39:14.078Z,9.00
2019-05-16T18:41:47.290Z,8.90
2019-05-16T18:44:23.420Z,8.90
2019-05-16T18:47:06.657Z,8.80
2019-05-16T18:49:31.951Z,8.80
2019-05-16T18:52:06.579Z,8.70
2019-05-16T18:54:39.828Z,8.70
2019-05-16T18:57:12.441Z,8.70
2019-05-16T18:59:46.266Z,8.70
2019-05-16T19:02:19.094Z,8.70
2019-05-16T19:04:52.708Z,8.70
2019-05-16T19:07:27.405Z,8.70
2019-05-16T19:10:01.868Z,8.60
2019-05-16T19:12:36.955Z,8.60
2019-05-16T19:15:11.094Z,8.60
2019-05-16T19:17:48.345Z,8.60
2019-05-16T19:20:21.488Z,8.60
2019-05-16T19:22:58.877Z,8.50
2019-05-16T19:25:29.546Z,8.40
2019-05-16T19:28:02.633Z,8.40
2019-05-16T19:30:37.668Z,8.40
2019-05-16T19:33:10.809Z,8.40
2019-05-16T19:35:46.942Z,8.30
2019-05-16T19:38:20.384Z,8.40
2019-05-16T19:40:54.069Z,8.40
2019-05-16T19:43:29.429Z,8.40
2019-05-16T19:46:02.742Z,8.30
2019-05-16T19:48:37.031Z,8.30
2019-05-16T19:51:10.271Z,8.30
2019-05-16T19:53:43.880Z,8.40
2019-05-16T19:56:17.800Z,8.30
2019-05-16T19:58:51.753Z,8.40
2019-05-16T20:01:27.293Z,8.30
2019-05-16T20:04:00.182Z,8.30
2019-05-16T20:06:33.038Z,8.40
2019-05-16T20:09:08.600Z,8.40
2019-05-16T20:11:42.152Z,8.30
2019-05-16T20:14:16.949Z,8.20
2019-05-16T20:16:51.150Z,8.30
2019-05-16T20:19:26.672Z,8.30
2019-05-16T20:21:59.021Z,8.30
2019-05-16T20:24:33.335Z,8.30
2019-05-16T20:27:08.093Z,8.30
2019-05-16T20:29:42.517Z,8.30
2019-05-16T20:32:16.960Z,8.20
2019-05-16T20:34:49.866Z,8.30
2019-05-16T20:37:26.462Z,8.30
2019-05-16T20:39:59.057Z,8.30
2019-05-16T20:42:32.850Z,8.30
2019-05-16T20:45:07.980Z,8.30
2019-05-16T20:47:40.484Z,8.30
2019-05-16T20:50:17.110Z,8.30
2019-05-16T20:52:50.417Z,8.30
2019-05-16T20:55:24.142Z,8.30
2019-05-16T20:57:58.007Z,8.30
2019-05-16T21:00:31.681Z,8.30
2019-05-16T21:03:06.850Z,8.30
2019-05-16T21:05:39.581Z,8.30
2019-05-16T21:08:12.850Z,8.30
2019-05-16T21:10:46.455Z,8.30
2019-05-16T21:13:20.968Z,8.30
2019-05-16T21:15:57.562Z,8.30
2019-05-16T21:18:37.683Z,8.30
2019-05-16T21:21:11.823Z,8.30
2019-05-16T21:23:46.873Z,8.30
2019-05-16T21:26:20.860Z,8.30
2019-05-16T21:28:53.861Z,8.30
2019-05-16T21:31:27.666Z,8.30
2019-05-16T21:34:01.039Z,8.40
2019-05-16T21:36:36.640Z,8.40
2019-05-16T21:39:09.928Z,8.40
2019-05-16T21:41:42.958Z,8.40
2019-05-16T21:44:17.091Z,8.40
2019-05-16T21:46:53.458Z,8.40
2019-05-16T21:49:27.582Z,8.40
2019-05-16T21:52:01.055Z,8.40
2019-05-16T21:54:33.879Z,8.40
2019-05-16T21:57:07.276Z,8.40
2019-05-16T21:59:40.343Z,8.50
2019-05-16T22:02:14.066Z,8.40
2019-05-16T22:04:47.814Z,8.50
2019-05-16T22:07:32.800Z,8.50
2019-05-16T22:09:57.486Z,8.50
2019-05-16T22:12:32.587Z,8.60
2019-05-16T22:15:06.696Z,8.60
2019-05-16T22:17:41.660Z,8.60
2019-05-16T22:20:16.511Z,8.60
2019-05-16T22:22:50.252Z,8.70
2019-05-16T22:25:27.114Z,8.70
2019-05-16T22:27:59.805Z,8.70
2019-05-16T22:30:32.980Z,8.70
2019-05-16T22:33:08.916Z,8.70
2019-05-16T22:35:40.738Z,8.70
2019-05-16T22:38:14.111Z,8.70
2019-05-16T22:40:53.268Z,8.80
2019-05-16T22:43:26.698Z,8.80
2019-05-16T22:45:59.810Z,8.80
2019-05-16T22:48:32.686Z,8.80
2019-05-16T22:51:07.154Z,8.80
2019-05-16T22:53:40.780Z,8.90
2019-05-16T22:56:13.779Z,8.90
2019-05-16T22:58:47.093Z,8.80
2019-05-16T23:01:20.700Z,8.90
2019-05-16T23:03:54.127Z,8.90
2019-05-16T23:06:29.212Z,8.90
2019-05-16T23:09:02.528Z,8.90
2019-05-16T23:11:36.935Z,8.90
2019-05-16T23:14:10.543Z,8.90
2019-05-16T23:16:43.699Z,8.90
2019-05-16T23:19:17.484Z,8.90
2019-05-16T23:21:50.143Z,8.90
2019-05-16T23:24:26.179Z,8.90
2019-05-16T23:26:58.690Z,8.90
2019-05-16T23:29:31.619Z,9.00
2019-05-16T23:32:07.162Z,8.90
2019-05-16T23:34:38.969Z,8.90
2019-05-16T23:37:12.542Z,8.90
2019-05-16T23:39:47.501Z,8.90
2019-05-16T23:42:21.397Z,8.90
2019-05-16T23:44:56.573Z,8.90
2019-05-16T23:47:28.946Z,8.90
2019-05-16T23:50:01.552Z,8.90
2019-05-16T23:52:36.596Z,8.90
2019-05-16T23:55:10.151Z,8.90
2019-05-16T23:57:43.400Z,8.90
